Archival Weather

Chicago O'Hare International

Chicago, Illinois (KORD)

Report from: Wednesday, June 5, 2024 1:51 PM CDT
Current time: Tuesday, June 18, 2024 6:06 AM CDT

Current weather – Weather history – Daily summaries
Weather forecast

Temperature25.0°C (77.0°F)
Dew point16.7°C (62.1°F)
Winds 13 kts (6.7 m/s, 15 mph) West (280°)
Wind gusts 18 kts (9.3 m/s, 20.7 mph)
Visibility10 mi. (16.1 km)
Clouds Ceiling: Broken clouds 3,400 ft. (1,036 m)
Broken clouds 25,000 ft. (7,620 m)
Altimeter29.61 in.Hg (1003 mB)
Relative humidity60 %
Density altitude1,792 ft. (546 m)
Sea-level pressure100.2 kPa (1002 mB, 29.60 in.Hg)
Remarks Automated weather observing station with precipitation discriminator
Flight conditions Visual Meteorological Conditions
Raw dataKORD 051851Z 28013G18KT 10SM BKN034 BKN250 25/17 A2961 RMK AO2 SLP022 T02500167
An error has occurred. This application may no longer respond until reloaded. Reload 🗙